sensor_id;sensor_type;location;lat;lon;timestamp;P1;durP1;ratioP1;P2;durP2;ratioP2
53253;SDS011;39148;53.332;6.922;2023-04-16T00:01:51;16.17;;;7.10;;
53253;SDS011;39148;53.332;6.922;2023-04-16T00:04:16;14.10;;;6.68;;
53253;SDS011;39148;53.332;6.922;2023-04-16T00:06:43;17.67;;;6.88;;
53253;SDS011;39148;53.332;6.922;2023-04-16T00:09:09;15.93;;;7.35;;
53253;SDS011;39148;53.332;6.922;2023-04-16T00:11:35;16.80;;;7.55;;
53253;SDS011;39148;53.332;6.922;2023-04-16T00:14:01;16.58;;;7.75;;
53253;SDS011;39148;53.332;6.922;2023-04-16T00:16:27;15.82;;;7.15;;
53253;SDS011;39148;53.332;6.922;2023-04-16T00:18:53;18.90;;;8.05;;
53253;SDS011;39148;53.332;6.922;2023-04-16T00:21:19;14.48;;;7.30;;
53253;SDS011;39148;53.332;6.922;2023-04-16T00:23:45;16.77;;;7.82;;
53253;SDS011;39148;53.332;6.922;2023-04-16T00:26:11;15.25;;;7.75;;
53253;SDS011;39148;53.332;6.922;2023-04-16T00:28:37;17.13;;;8.35;;
53253;SDS011;39148;53.332;6.922;2023-04-16T00:31:03;21.95;;;8.82;;
53253;SDS011;39148;53.332;6.922;2023-04-16T00:33:30;19.08;;;8.27;;
53253;SDS011;39148;53.332;6.922;2023-04-16T00:35:56;14.20;;;7.88;;
53253;SDS011;39148;53.332;6.922;2023-04-16T00:38:22;16.30;;;8.75;;
53253;SDS011;39148;53.332;6.922;2023-04-16T00:40:48;18.30;;;8.20;;
53253;SDS011;39148;53.332;6.922;2023-04-16T00:43:21;19.17;;;8.70;;
53253;SDS011;39148;53.332;6.922;2023-04-16T00:45:49;19.52;;;9.43;;
53253;SDS011;39148;53.332;6.922;2023-04-16T00:48:15;17.05;;;9.38;;
53253;SDS011;39148;53.332;6.922;2023-04-16T00:50:40;15.55;;;8.57;;
53253;SDS011;39148;53.332;6.922;2023-04-16T00:53:06;17.73;;;9.63;;
53253;SDS011;39148;53.332;6.922;2023-04-16T00:55:33;21.33;;;10.07;;
53253;SDS011;39148;53.332;6.922;2023-04-16T00:57:59;20.88;;;11.07;;
53253;SDS011;39148;53.332;6.922;2023-04-16T01:00:25;19.48;;;10.07;;
53253;SDS011;39148;53.332;6.922;2023-04-16T01:02:52;17.25;;;10.13;;
53253;SDS011;39148;53.332;6.922;2023-04-16T01:05:18;21.90;;;11.23;;
53253;SDS011;39148;53.332;6.922;2023-04-16T01:07:45;18.83;;;10.02;;
53253;SDS011;39148;53.332;6.922;2023-04-16T01:10:10;22.08;;;11.65;;
53253;SDS011;39148;53.332;6.922;2023-04-16T01:12:36;22.70;;;11.88;;
53253;SDS011;39148;53.332;6.922;2023-04-16T01:15:02;19.92;;;11.27;;
53253;SDS011;39148;53.332;6.922;2023-04-16T01:17:28;20.45;;;10.95;;
53253;SDS011;39148;53.332;6.922;2023-04-16T01:19:57;20.65;;;10.93;;
53253;SDS011;39148;53.332;6.922;2023-04-16T01:22:23;18.63;;;10.27;;
53253;SDS011;39148;53.332;6.922;2023-04-16T01:24:49;18.95;;;11.60;;
53253;SDS011;39148;53.332;6.922;2023-04-16T01:27:15;19.10;;;12.25;;
53253;SDS011;39148;53.332;6.922;2023-04-16T01:29:41;21.35;;;11.50;;
53253;SDS011;39148;53.332;6.922;2023-04-16T01:32:07;21.63;;;11.27;;
53253;SDS011;39148;53.332;6.922;2023-04-16T01:34:33;20.60;;;11.38;;
53253;SDS011;39148;53.332;6.922;2023-04-16T01:36:59;22.02;;;12.05;;
53253;SDS011;39148;53.332;6.922;2023-04-16T01:39:25;20.48;;;11.40;;
53253;SDS011;39148;53.332;6.922;2023-04-16T01:41:51;23.55;;;11.68;;
53253;SDS011;39148;53.332;6.922;2023-04-16T01:44:17;20.65;;;11.30;;
53253;SDS011;39148;53.332;6.922;2023-04-16T01:46:43;20.90;;;11.32;;
53253;SDS011;39148;53.332;6.922;2023-04-16T01:49:09;21.48;;;11.75;;
53253;SDS011;39148;53.332;6.922;2023-04-16T01:51:35;20.73;;;11.25;;
53253;SDS011;39148;53.332;6.922;2023-04-16T01:54:01;21.02;;;10.98;;
53253;SDS011;39148;53.332;6.922;2023-04-16T01:56:27;19.58;;;11.25;;
53253;SDS011;39148;53.332;6.922;2023-04-16T01:58:53;20.95;;;11.48;;
53253;SDS011;39148;53.332;6.922;2023-04-16T02:01:20;22.48;;;11.88;;
53253;SDS011;39148;53.332;6.922;2023-04-16T02:03:46;18.77;;;11.07;;
53253;SDS011;39148;53.332;6.922;2023-04-16T02:06:12;21.10;;;10.75;;
53253;SDS011;39148;53.332;6.922;2023-04-16T02:08:38;20.02;;;10.52;;
53253;SDS011;39148;53.332;6.922;2023-04-16T02:11:05;18.85;;;10.75;;
53253;SDS011;39148;53.332;6.922;2023-04-16T02:13:31;21.38;;;10.77;;
53253;SDS011;39148;53.332;6.922;2023-04-16T02:15:57;21.40;;;10.45;;
53253;SDS011;39148;53.332;6.922;2023-04-16T02:18:24;18.95;;;10.00;;
53253;SDS011;39148;53.332;6.922;2023-04-16T02:20:50;15.60;;;9.00;;
53253;SDS011;39148;53.332;6.922;2023-04-16T02:23:16;20.08;;;10.23;;
53253;SDS011;39148;53.332;6.922;2023-04-16T02:25:44;23.00;;;11.35;;
53253;SDS011;39148;53.332;6.922;2023-04-16T02:28:14;20.42;;;11.48;;
53253;SDS011;39148;53.332;6.922;2023-04-16T02:30:40;18.83;;;10.25;;
53253;SDS011;39148;53.332;6.922;2023-04-16T02:33:07;22.88;;;10.65;;
53253;SDS011;39148;53.332;6.922;2023-04-16T02:35:34;21.77;;;11.35;;
53253;SDS011;39148;53.332;6.922;2023-04-16T02:38:01;15.10;;;9.98;;
53253;SDS011;39148;53.332;6.922;2023-04-16T02:40:28;20.05;;;10.98;;
53253;SDS011;39148;53.332;6.922;2023-04-16T02:42:54;20.58;;;9.43;;
53253;SDS011;39148;53.332;6.922;2023-04-16T02:45:20;19.15;;;10.50;;
53253;SDS011;39148;53.332;6.922;2023-04-16T02:47:47;20.48;;;10.60;;
53253;SDS011;39148;53.332;6.922;2023-04-16T02:50:13;20.10;;;9.82;;
53253;SDS011;39148;53.332;6.922;2023-04-16T02:52:39;21.13;;;9.93;;
53253;SDS011;39148;53.332;6.922;2023-04-16T02:55:05;18.02;;;9.45;;
53253;SDS011;39148;53.332;6.922;2023-04-16T02:57:31;18.55;;;9.27;;
53253;SDS011;39148;53.332;6.922;2023-04-16T02:59:57;20.60;;;9.77;;
53253;SDS011;39148;53.332;6.922;2023-04-16T03:02:23;15.45;;;9.43;;
53253;SDS011;39148;53.332;6.922;2023-04-16T03:04:50;20.42;;;9.48;;
53253;SDS011;39148;53.332;6.922;2023-04-16T03:07:16;19.48;;;10.00;;
53253;SDS011;39148;53.332;6.922;2023-04-16T03:09:42;18.98;;;10.00;;
53253;SDS011;39148;53.332;6.922;2023-04-16T03:12:08;17.90;;;8.10;;
53253;SDS011;39148;53.332;6.922;2023-04-16T03:14:34;17.23;;;8.75;;
53253;SDS011;39148;53.332;6.922;2023-04-16T03:17:00;16.67;;;8.80;;
53253;SDS011;39148;53.332;6.922;2023-04-16T03:19:26;16.80;;;8.52;;
53253;SDS011;39148;53.332;6.922;2023-04-16T03:21:52;16.73;;;8.63;;
53253;SDS011;39148;53.332;6.922;2023-04-16T03:24:18;14.98;;;8.75;;
53253;SDS011;39148;53.332;6.922;2023-04-16T03:26:44;14.77;;;8.43;;
53253;SDS011;39148;53.332;6.922;2023-04-16T03:29:10;20.48;;;8.35;;
53253;SDS011;39148;53.332;6.922;2023-04-16T03:31:35;18.88;;;8.43;;
53253;SDS011;39148;53.332;6.922;2023-04-16T03:34:02;16.08;;;7.75;;
53253;SDS011;39148;53.332;6.922;2023-04-16T03:36:29;15.50;;;8.07;;
53253;SDS011;39148;53.332;6.922;2023-04-16T03:38:55;17.33;;;7.72;;
53253;SDS011;39148;53.332;6.922;2023-04-16T03:41:21;16.83;;;7.57;;
53253;SDS011;39148;53.332;6.922;2023-04-16T03:43:47;15.63;;;7.72;;
53253;SDS011;39148;53.332;6.922;2023-04-16T03:46:13;12.70;;;7.32;;
53253;SDS011;39148;53.332;6.922;2023-04-16T03:48:39;13.88;;;7.60;;
53253;SDS011;39148;53.332;6.922;2023-04-16T03:51:05;14.00;;;7.35;;
53253;SDS011;39148;53.332;6.922;2023-04-16T03:53:31;16.52;;;7.93;;
53253;SDS011;39148;53.332;6.922;2023-04-16T03:55:57;15.82;;;7.35;;
53253;SDS011;39148;53.332;6.922;2023-04-16T03:58:23;14.13;;;7.75;;
53253;SDS011;39148;53.332;6.922;2023-04-16T04:00:51;15.45;;;7.60;;
53253;SDS011;39148;53.332;6.922;2023-04-16T04:03:18;14.73;;;6.95;;
53253;SDS011;39148;53.332;6.922;2023-04-16T04:05:44;14.18;;;7.68;;
53253;SDS011;39148;53.332;6.922;2023-04-16T04:08:10;15.27;;;7.18;;
53253;SDS011;39148;53.332;6.922;2023-04-16T04:10:36;12.25;;;6.60;;
53253;SDS011;39148;53.332;6.922;2023-04-16T04:13:03;15.60;;;7.47;;
53253;SDS011;39148;53.332;6.922;2023-04-16T04:15:29;13.02;;;7.32;;
53253;SDS011;39148;53.332;6.922;2023-04-16T04:17:55;14.07;;;7.03;;
53253;SDS011;39148;53.332;6.922;2023-04-16T04:20:22;15.48;;;7.35;;
53253;SDS011;39148;53.332;6.922;2023-04-16T04:22:48;12.15;;;6.40;;
53253;SDS011;39148;53.332;6.922;2023-04-16T04:25:15;14.60;;;7.80;;
53253;SDS011;39148;53.332;6.922;2023-04-16T04:27:41;12.02;;;6.45;;
53253;SDS011;39148;53.332;6.922;2023-04-16T04:30:07;12.55;;;6.65;;
53253;SDS011;39148;53.332;6.922;2023-04-16T04:32:33;13.05;;;6.22;;
53253;SDS011;39148;53.332;6.922;2023-04-16T04:35:00;11.55;;;6.97;;
53253;SDS011;39148;53.332;6.922;2023-04-16T04:37:26;12.68;;;6.47;;
53253;SDS011;39148;53.332;6.922;2023-04-16T04:39:52;12.50;;;6.35;;
53253;SDS011;39148;53.332;6.922;2023-04-16T04:42:18;10.77;;;6.28;;
53253;SDS011;39148;53.332;6.922;2023-04-16T04:44:46;11.80;;;7.28;;
53253;SDS011;39148;53.332;6.922;2023-04-16T04:47:12;15.15;;;7.28;;
53253;SDS011;39148;53.332;6.922;2023-04-16T04:49:38;11.60;;;6.45;;
53253;SDS011;39148;53.332;6.922;2023-04-16T04:52:04;14.18;;;7.88;;
53253;SDS011;39148;53.332;6.922;2023-04-16T04:54:30;11.40;;;7.13;;
53253;SDS011;39148;53.332;6.922;2023-04-16T04:56:57;13.23;;;6.60;;
53253;SDS011;39148;53.332;6.922;2023-04-16T04:59:23;10.75;;;6.68;;
53253;SDS011;39148;53.332;6.922;2023-04-16T05:01:49;12.60;;;6.18;;
53253;SDS011;39148;53.332;6.922;2023-04-16T05:04:16;12.63;;;6.75;;
53253;SDS011;39148;53.332;6.922;2023-04-16T05:06:42;11.88;;;7.13;;
53253;SDS011;39148;53.332;6.922;2023-04-16T05:11:39;11.15;;;6.53;;
53253;SDS011;39148;53.332;6.922;2023-04-16T05:14:05;11.10;;;6.55;;
53253;SDS011;39148;53.332;6.922;2023-04-16T05:16:34;13.45;;;7.32;;
53253;SDS011;39148;53.332;6.922;2023-04-16T05:19:00;13.10;;;7.60;;
53253;SDS011;39148;53.332;6.922;2023-04-16T05:21:26;11.85;;;7.55;;
53253;SDS011;39148;53.332;6.922;2023-04-16T05:23:52;11.57;;;7.63;;
53253;SDS011;39148;53.332;6.922;2023-04-16T05:26:19;12.50;;;7.63;;
53253;SDS011;39148;53.332;6.922;2023-04-16T05:28:45;12.50;;;7.53;;
53253;SDS011;39148;53.332;6.922;2023-04-16T05:31:11;12.65;;;7.15;;
53253;SDS011;39148;53.332;6.922;2023-04-16T05:33:37;13.52;;;7.38;;
53253;SDS011;39148;53.332;6.922;2023-04-16T05:36:03;13.15;;;7.93;;
53253;SDS011;39148;53.332;6.922;2023-04-16T05:38:29;12.25;;;6.72;;
53253;SDS011;39148;53.332;6.922;2023-04-16T05:40:56;13.18;;;7.43;;
53253;SDS011;39148;53.332;6.922;2023-04-16T05:43:22;13.05;;;7.85;;
53253;SDS011;39148;53.332;6.922;2023-04-16T05:45:48;14.65;;;6.93;;
53253;SDS011;39148;53.332;6.922;2023-04-16T05:48:14;16.65;;;8.20;;
53253;SDS011;39148;53.332;6.922;2023-04-16T05:50:40;11.02;;;6.82;;
53253;SDS011;39148;53.332;6.922;2023-04-16T05:53:07;14.23;;;7.28;;
53253;SDS011;39148;53.332;6.922;2023-04-16T05:55:33;14.40;;;7.88;;
53253;SDS011;39148;53.332;6.922;2023-04-16T05:58:01;13.55;;;7.47;;
53253;SDS011;39148;53.332;6.922;2023-04-16T06:00:33;11.73;;;7.32;;
53253;SDS011;39148;53.332;6.922;2023-04-16T06:02:59;13.43;;;7.93;;
53253;SDS011;39148;53.332;6.922;2023-04-16T06:05:25;12.75;;;7.00;;
53253;SDS011;39148;53.332;6.922;2023-04-16T06:07:51;11.93;;;7.00;;
53253;SDS011;39148;53.332;6.922;2023-04-16T06:10:17;13.93;;;7.82;;
53253;SDS011;39148;53.332;6.922;2023-04-16T06:12:43;14.85;;;8.30;;
53253;SDS011;39148;53.332;6.922;2023-04-16T06:15:09;13.13;;;7.22;;
53253;SDS011;39148;53.332;6.922;2023-04-16T06:17:35;12.35;;;7.18;;
53253;SDS011;39148;53.332;6.922;2023-04-16T06:20:01;11.93;;;7.35;;
53253;SDS011;39148;53.332;6.922;2023-04-16T06:22:28;13.55;;;7.55;;
53253;SDS011;39148;53.332;6.922;2023-04-16T06:24:54;11.90;;;7.30;;
53253;SDS011;39148;53.332;6.922;2023-04-16T06:27:20;12.70;;;7.45;;
53253;SDS011;39148;53.332;6.922;2023-04-16T06:29:46;12.27;;;7.45;;
53253;SDS011;39148;53.332;6.922;2023-04-16T06:32:12;11.20;;;6.97;;
53253;SDS011;39148;53.332;6.922;2023-04-16T06:34:38;13.93;;;7.57;;
53253;SDS011;39148;53.332;6.922;2023-04-16T06:37:05;13.18;;;7.45;;
53253;SDS011;39148;53.332;6.922;2023-04-16T06:39:31;13.75;;;7.57;;
53253;SDS011;39148;53.332;6.922;2023-04-16T06:41:58;12.32;;;7.30;;
53253;SDS011;39148;53.332;6.922;2023-04-16T06:44:24;13.35;;;8.13;;
53253;SDS011;39148;53.332;6.922;2023-04-16T06:46:50;12.77;;;7.88;;
53253;SDS011;39148;53.332;6.922;2023-04-16T06:49:16;15.65;;;7.60;;
53253;SDS011;39148;53.332;6.922;2023-04-16T06:51:42;14.50;;;8.43;;
53253;SDS011;39148;53.332;6.922;2023-04-16T06:54:08;11.77;;;7.45;;
53253;SDS011;39148;53.332;6.922;2023-04-16T06:56:34;15.57;;;8.10;;
53253;SDS011;39148;53.332;6.922;2023-04-16T06:59:01;13.82;;;7.82;;
53253;SDS011;39148;53.332;6.922;2023-04-16T07:01:27;12.63;;;7.35;;
53253;SDS011;39148;53.332;6.922;2023-04-16T07:03:55;13.80;;;8.18;;
53253;SDS011;39148;53.332;6.922;2023-04-16T07:06:21;11.80;;;7.55;;
53253;SDS011;39148;53.332;6.922;2023-04-16T07:08:47;14.25;;;7.70;;
53253;SDS011;39148;53.332;6.922;2023-04-16T07:11:13;12.45;;;7.07;;
53253;SDS011;39148;53.332;6.922;2023-04-16T07:13:39;14.00;;;7.05;;
53253;SDS011;39148;53.332;6.922;2023-04-16T07:16:05;13.60;;;7.85;;
53253;SDS011;39148;53.332;6.922;2023-04-16T07:18:31;13.45;;;7.82;;
53253;SDS011;39148;53.332;6.922;2023-04-16T07:20:57;14.70;;;8.07;;
53253;SDS011;39148;53.332;6.922;2023-04-16T07:23:23;14.68;;;7.60;;
53253;SDS011;39148;53.332;6.922;2023-04-16T07:25:49;11.27;;;7.07;;
53253;SDS011;39148;53.332;6.922;2023-04-16T07:28:15;10.90;;;6.70;;
53253;SDS011;39148;53.332;6.922;2023-04-16T07:30:42;12.98;;;7.60;;
53253;SDS011;39148;53.332;6.922;2023-04-16T07:33:08;11.88;;;6.53;;
53253;SDS011;39148;53.332;6.922;2023-04-16T07:35:34;13.25;;;7.07;;
53253;SDS011;39148;53.332;6.922;2023-04-16T07:38:00;13.88;;;7.40;;
53253;SDS011;39148;53.332;6.922;2023-04-16T07:40:26;12.48;;;7.68;;
53253;SDS011;39148;53.332;6.922;2023-04-16T07:42:53;13.02;;;7.47;;
53253;SDS011;39148;53.332;6.922;2023-04-16T07:45:20;14.15;;;7.95;;
53253;SDS011;39148;53.332;6.922;2023-04-16T07:47:46;11.25;;;7.85;;
53253;SDS011;39148;53.332;6.922;2023-04-16T07:50:12;13.60;;;7.57;;
53253;SDS011;39148;53.332;6.922;2023-04-16T07:52:38;13.88;;;7.50;;
53253;SDS011;39148;53.332;6.922;2023-04-16T07:55:07;11.75;;;6.78;;
53253;SDS011;39148;53.332;6.922;2023-04-16T07:57:33;12.13;;;7.07;;
53253;SDS011;39148;53.332;6.922;2023-04-16T07:59:59;16.35;;;8.35;;
53253;SDS011;39148;53.332;6.922;2023-04-16T08:02:31;14.30;;;7.00;;
53253;SDS011;39148;53.332;6.922;2023-04-16T08:04:57;12.73;;;7.20;;
53253;SDS011;39148;53.332;6.922;2023-04-16T08:07:23;14.57;;;7.85;;
53253;SDS011;39148;53.332;6.922;2023-04-16T08:09:50;13.82;;;7.72;;
53253;SDS011;39148;53.332;6.922;2023-04-16T08:12:16;13.00;;;7.55;;
53253;SDS011;39148;53.332;6.922;2023-04-16T08:14:43;12.75;;;7.03;;
53253;SDS011;39148;53.332;6.922;2023-04-16T08:17:13;14.27;;;6.95;;
53253;SDS011;39148;53.332;6.922;2023-04-16T08:19:39;12.10;;;7.38;;
53253;SDS011;39148;53.332;6.922;2023-04-16T08:22:05;11.32;;;6.82;;
53253;SDS011;39148;53.332;6.922;2023-04-16T08:24:31;13.27;;;7.80;;
53253;SDS011;39148;53.332;6.922;2023-04-16T08:26:57;11.23;;;7.10;;
53253;SDS011;39148;53.332;6.922;2023-04-16T08:29:24;13.13;;;7.40;;
53253;SDS011;39148;53.332;6.922;2023-04-16T08:31:50;13.98;;;6.82;;
53253;SDS011;39148;53.332;6.922;2023-04-16T08:34:19;9.93;;;6.40;;
53253;SDS011;39148;53.332;6.922;2023-04-16T08:36:45;12.00;;;7.03;;
53253;SDS011;39148;53.332;6.922;2023-04-16T08:39:11;13.18;;;6.93;;
53253;SDS011;39148;53.332;6.922;2023-04-16T08:41:38;13.23;;;6.85;;
53253;SDS011;39148;53.332;6.922;2023-04-16T08:44:07;11.85;;;6.72;;
53253;SDS011;39148;53.332;6.922;2023-04-16T08:46:35;11.73;;;6.57;;
53253;SDS011;39148;53.332;6.922;2023-04-16T08:49:04;12.10;;;6.78;;
53253;SDS011;39148;53.332;6.922;2023-04-16T08:51:32;11.93;;;6.53;;
53253;SDS011;39148;53.332;6.922;2023-04-16T08:54:02;10.75;;;6.35;;
53253;SDS011;39148;53.332;6.922;2023-04-16T08:56:29;12.77;;;6.65;;
53253;SDS011;39148;53.332;6.922;2023-04-16T08:58:56;11.85;;;6.28;;
53253;SDS011;39148;53.332;6.922;2023-04-16T09:01:25;11.85;;;6.95;;
53253;SDS011;39148;53.332;6.922;2023-04-16T09:03:52;11.00;;;6.90;;
53253;SDS011;39148;53.332;6.922;2023-04-16T09:06:18;11.95;;;6.95;;
53253;SDS011;39148;53.332;6.922;2023-04-16T09:08:44;10.77;;;6.28;;
53253;SDS011;39148;53.332;6.922;2023-04-16T09:11:12;11.30;;;6.35;;
53253;SDS011;39148;53.332;6.922;2023-04-16T09:13:38;13.65;;;6.95;;
53253;SDS011;39148;53.332;6.922;2023-04-16T09:16:05;11.93;;;6.60;;
53253;SDS011;39148;53.332;6.922;2023-04-16T09:18:31;10.50;;;6.35;;
53253;SDS011;39148;53.332;6.922;2023-04-16T09:20:57;11.70;;;6.03;;
53253;SDS011;39148;53.332;6.922;2023-04-16T09:23:24;17.63;;;6.80;;
53253;SDS011;39148;53.332;6.922;2023-04-16T09:25:50;10.93;;;6.05;;
53253;SDS011;39148;53.332;6.922;2023-04-16T09:31:17;11.00;;;6.78;;
53253;SDS011;39148;53.332;6.922;2023-04-16T09:33:43;13.43;;;6.82;;
53253;SDS011;39148;53.332;6.922;2023-04-16T09:36:25;12.60;;;6.15;;
53253;SDS011;39148;53.332;6.922;2023-04-16T09:38:52;12.63;;;6.28;;
53253;SDS011;39148;53.332;6.922;2023-04-16T09:41:18;14.13;;;6.88;;
53253;SDS011;39148;53.332;6.922;2023-04-16T09:43:55;12.77;;;6.93;;
53253;SDS011;39148;53.332;6.922;2023-04-16T09:46:22;13.07;;;6.97;;
53253;SDS011;39148;53.332;6.922;2023-04-16T09:48:48;13.77;;;6.80;;
53253;SDS011;39148;53.332;6.922;2023-04-16T09:51:14;12.82;;;6.70;;
53253;SDS011;39148;53.332;6.922;2023-04-16T09:53:40;11.32;;;6.43;;
53253;SDS011;39148;53.332;6.922;2023-04-16T09:56:06;11.75;;;6.82;;
53253;SDS011;39148;53.332;6.922;2023-04-16T09:58:34;11.80;;;6.38;;
53253;SDS011;39148;53.332;6.922;2023-04-16T10:01:01;13.80;;;6.57;;
53253;SDS011;39148;53.332;6.922;2023-04-16T10:03:34;12.88;;;6.05;;
53253;SDS011;39148;53.332;6.922;2023-04-16T10:06:13;10.55;;;6.18;;
53253;SDS011;39148;53.332;6.922;2023-04-16T10:08:43;13.52;;;6.80;;
53253;SDS011;39148;53.332;6.922;2023-04-16T10:11:09;10.50;;;6.32;;
53253;SDS011;39148;53.332;6.922;2023-04-16T10:13:35;11.45;;;6.38;;
53253;SDS011;39148;53.332;6.922;2023-04-16T10:16:01;10.10;;;6.05;;
53253;SDS011;39148;53.332;6.922;2023-04-16T10:18:28;11.98;;;6.00;;
53253;SDS011;39148;53.332;6.922;2023-04-16T10:20:54;12.43;;;6.68;;
53253;SDS011;39148;53.332;6.922;2023-04-16T10:23:20;12.77;;;6.57;;
53253;SDS011;39148;53.332;6.922;2023-04-16T10:25:47;13.98;;;6.97;;
53253;SDS011;39148;53.332;6.922;2023-04-16T10:28:13;11.82;;;6.95;;
53253;SDS011;39148;53.332;6.922;2023-04-16T10:30:40;11.85;;;5.93;;
53253;SDS011;39148;53.332;6.922;2023-04-16T10:33:06;11.90;;;5.82;;
53253;SDS011;39148;53.332;6.922;2023-04-16T10:35:37;11.02;;;6.60;;
53253;SDS011;39148;53.332;6.922;2023-04-16T10:41:03;12.50;;;6.28;;
53253;SDS011;39148;53.332;6.922;2023-04-16T10:43:30;12.00;;;6.45;;
53253;SDS011;39148;53.332;6.922;2023-04-16T10:46:00;10.50;;;6.82;;
53253;SDS011;39148;53.332;6.922;2023-04-16T10:48:41;13.55;;;6.35;;
53253;SDS011;39148;53.332;6.922;2023-04-16T10:51:07;9.85;;;6.55;;
53253;SDS011;39148;53.332;6.922;2023-04-16T10:53:47;11.98;;;6.68;;
53253;SDS011;39148;53.332;6.922;2023-04-16T10:56:13;11.52;;;6.30;;
53253;SDS011;39148;53.332;6.922;2023-04-16T10:58:39;11.43;;;6.57;;
53253;SDS011;39148;53.332;6.922;2023-04-16T11:01:06;13.65;;;6.63;;
53253;SDS011;39148;53.332;6.922;2023-04-16T11:03:40;10.25;;;6.88;;
53253;SDS011;39148;53.332;6.922;2023-04-16T11:06:10;10.75;;;6.10;;
53253;SDS011;39148;53.332;6.922;2023-04-16T11:08:37;10.25;;;5.97;;
53253;SDS011;39148;53.332;6.922;2023-04-16T11:11:04;13.27;;;6.55;;
53253;SDS011;39148;53.332;6.922;2023-04-16T11:13:31;15.52;;;6.70;;
53253;SDS011;39148;53.332;6.922;2023-04-16T11:15:57;11.98;;;6.47;;
53253;SDS011;39148;53.332;6.922;2023-04-16T11:18:24;13.82;;;6.20;;
53253;SDS011;39148;53.332;6.922;2023-04-16T11:20:50;10.13;;;6.53;;
53253;SDS011;39148;53.332;6.922;2023-04-16T11:23:16;11.05;;;6.35;;
53253;SDS011;39148;53.332;6.922;2023-04-16T11:25:42;11.73;;;6.20;;
53253;SDS011;39148;53.332;6.922;2023-04-16T11:28:09;12.77;;;6.97;;
53253;SDS011;39148;53.332;6.922;2023-04-16T11:30:37;10.90;;;6.72;;
53253;SDS011;39148;53.332;6.922;2023-04-16T11:33:04;12.88;;;7.03;;
53253;SDS011;39148;53.332;6.922;2023-04-16T11:35:32;13.35;;;7.45;;
53253;SDS011;39148;53.332;6.922;2023-04-16T11:37:58;11.82;;;6.88;;
53253;SDS011;39148;53.332;6.922;2023-04-16T11:40:24;11.82;;;7.25;;
53253;SDS011;39148;53.332;6.922;2023-04-16T11:42:53;11.07;;;6.97;;
53253;SDS011;39148;53.332;6.922;2023-04-16T11:45:20;13.77;;;7.15;;
53253;SDS011;39148;53.332;6.922;2023-04-16T11:47:46;13.52;;;7.32;;
53253;SDS011;39148;53.332;6.922;2023-04-16T11:52:51;12.50;;;7.10;;
53253;SDS011;39148;53.332;6.922;2023-04-16T11:55:18;10.63;;;6.43;;
53253;SDS011;39148;53.332;6.922;2023-04-16T11:57:44;11.23;;;6.78;;
53253;SDS011;39148;53.332;6.922;2023-04-16T12:00:10;12.32;;;7.18;;
53253;SDS011;39148;53.332;6.922;2023-04-16T12:02:43;11.95;;;7.25;;
53253;SDS011;39148;53.332;6.922;2023-04-16T12:07:54;13.35;;;7.47;;
53253;SDS011;39148;53.332;6.922;2023-04-16T12:10:21;13.77;;;7.57;;
53253;SDS011;39148;53.332;6.922;2023-04-16T12:12:46;12.88;;;6.78;;
53253;SDS011;39148;53.332;6.922;2023-04-16T12:15:12;12.73;;;7.95;;
53253;SDS011;39148;53.332;6.922;2023-04-16T12:17:38;15.63;;;7.93;;
53253;SDS011;39148;53.332;6.922;2023-04-16T12:20:08;12.27;;;7.07;;
53253;SDS011;39148;53.332;6.922;2023-04-16T12:22:38;12.63;;;7.03;;
53253;SDS011;39148;53.332;6.922;2023-04-16T12:25:11;11.55;;;7.85;;
53253;SDS011;39148;53.332;6.922;2023-04-16T12:27:42;13.77;;;8.10;;
53253;SDS011;39148;53.332;6.922;2023-04-16T12:30:13;13.20;;;7.63;;
53253;SDS011;39148;53.332;6.922;2023-04-16T12:32:40;12.50;;;8.15;;
53253;SDS011;39148;53.332;6.922;2023-04-16T12:35:07;12.50;;;7.88;;
53253;SDS011;39148;53.332;6.922;2023-04-16T12:37:36;13.80;;;7.50;;
53253;SDS011;39148;53.332;6.922;2023-04-16T12:40:02;10.85;;;7.43;;
53253;SDS011;39148;53.332;6.922;2023-04-16T12:42:31;12.45;;;7.72;;
53253;SDS011;39148;53.332;6.922;2023-04-16T12:45:04;11.93;;;8.32;;
53253;SDS011;39148;53.332;6.922;2023-04-16T12:47:31;14.40;;;7.82;;
53253;SDS011;39148;53.332;6.922;2023-04-16T12:49:57;12.13;;;8.13;;
53253;SDS011;39148;53.332;6.922;2023-04-16T12:52:23;12.65;;;8.27;;
53253;SDS011;39148;53.332;6.922;2023-04-16T12:54:49;13.80;;;8.63;;
53253;SDS011;39148;53.332;6.922;2023-04-16T12:57:16;12.13;;;8.18;;
53253;SDS011;39148;53.332;6.922;2023-04-16T12:59:42;13.30;;;8.90;;
53253;SDS011;39148;53.332;6.922;2023-04-16T13:02:07;13.82;;;9.13;;
53253;SDS011;39148;53.332;6.922;2023-04-16T13:04:33;13.07;;;8.75;;
53253;SDS011;39148;53.332;6.922;2023-04-16T13:06:59;13.13;;;8.40;;
53253;SDS011;39148;53.332;6.922;2023-04-16T13:09:26;12.15;;;8.55;;
53253;SDS011;39148;53.332;6.922;2023-04-16T13:11:52;13.52;;;8.63;;
53253;SDS011;39148;53.332;6.922;2023-04-16T13:14:18;13.43;;;8.55;;
53253;SDS011;39148;53.332;6.922;2023-04-16T13:16:44;12.88;;;8.38;;
53253;SDS011;39148;53.332;6.922;2023-04-16T13:19:10;11.82;;;7.90;;
53253;SDS011;39148;53.332;6.922;2023-04-16T13:21:36;14.60;;;8.70;;
53253;SDS011;39148;53.332;6.922;2023-04-16T13:24:01;13.30;;;7.95;;
53253;SDS011;39148;53.332;6.922;2023-04-16T13:26:28;12.27;;;8.50;;
53253;SDS011;39148;53.332;6.922;2023-04-16T13:28:53;13.02;;;7.97;;
53253;SDS011;39148;53.332;6.922;2023-04-16T13:31:19;12.15;;;7.78;;
53253;SDS011;39148;53.332;6.922;2023-04-16T13:33:46;13.43;;;8.20;;
53253;SDS011;39148;53.332;6.922;2023-04-16T13:36:12;11.05;;;7.53;;
53253;SDS011;39148;53.332;6.922;2023-04-16T13:38:38;12.20;;;7.82;;
53253;SDS011;39148;53.332;6.922;2023-04-16T13:41:04;12.60;;;7.68;;
53253;SDS011;39148;53.332;6.922;2023-04-16T13:43:30;12.80;;;7.80;;
53253;SDS011;39148;53.332;6.922;2023-04-16T13:45:57;11.88;;;8.20;;
53253;SDS011;39148;53.332;6.922;2023-04-16T13:48:22;12.77;;;8.02;;
53253;SDS011;39148;53.332;6.922;2023-04-16T13:50:49;12.27;;;7.40;;
53253;SDS011;39148;53.332;6.922;2023-04-16T13:53:14;12.73;;;7.95;;
53253;SDS011;39148;53.332;6.922;2023-04-16T13:55:41;11.88;;;7.72;;
53253;SDS011;39148;53.332;6.922;2023-04-16T13:58:07;14.10;;;7.55;;
53253;SDS011;39148;53.332;6.922;2023-04-16T14:00:33;12.38;;;7.43;;
53253;SDS011;39148;53.332;6.922;2023-04-16T14:02:59;14.05;;;7.80;;
53253;SDS011;39148;53.332;6.922;2023-04-16T14:05:25;11.57;;;6.78;;
53253;SDS011;39148;53.332;6.922;2023-04-16T14:07:51;11.13;;;7.18;;
53253;SDS011;39148;53.332;6.922;2023-04-16T14:10:17;10.48;;;6.72;;
53253;SDS011;39148;53.332;6.922;2023-04-16T14:12:43;11.85;;;7.05;;
53253;SDS011;39148;53.332;6.922;2023-04-16T14:15:10;12.75;;;7.80;;
53253;SDS011;39148;53.332;6.922;2023-04-16T14:17:38;12.65;;;7.35;;
53253;SDS011;39148;53.332;6.922;2023-04-16T14:20:05;12.00;;;7.07;;
53253;SDS011;39148;53.332;6.922;2023-04-16T14:22:31;16.77;;;8.27;;
53253;SDS011;39148;53.332;6.922;2023-04-16T14:24:57;11.35;;;7.40;;
53253;SDS011;39148;53.332;6.922;2023-04-16T14:27:23;10.15;;;7.00;;
53253;SDS011;39148;53.332;6.922;2023-04-16T14:29:49;12.82;;;7.30;;
53253;SDS011;39148;53.332;6.922;2023-04-16T14:32:16;11.75;;;7.05;;
53253;SDS011;39148;53.332;6.922;2023-04-16T14:34:42;14.43;;;7.18;;
53253;SDS011;39148;53.332;6.922;2023-04-16T14:37:08;11.70;;;6.85;;
53253;SDS011;39148;53.332;6.922;2023-04-16T14:39:33;13.35;;;7.10;;
53253;SDS011;39148;53.332;6.922;2023-04-16T14:42:00;10.32;;;6.80;;
53253;SDS011;39148;53.332;6.922;2023-04-16T14:44:27;10.48;;;6.35;;